Time;durP1;ratioP1;P1;durP2;ratioP2;P2;SDS_P1;SDS_P2;PMS_P1;PMS_P2;Temp;Humidity;BMP_temperature;BMP_pressure;BME280_temperature;BME280_humidity;BME280_pressure;Samples;Min_cycle;Max_cycle;Signal;HPM_P1;HPM_P2
2021/01/09 00:04:07;;;;;;;1.67;0.50;;;-8.10;99.90;;;;;;20823837;28;20546;-65
2021/01/09 00:14:10;;;;;;;0.93;0.40;;;-8.40;99.90;;;;;;20820891;28;20483;-65
2021/01/09 00:24:12;;;;;;;0.60;0.40;;;-8.20;99.90;;;;;;20790063;28;20041;-64
2021/01/09 00:34:14;;;;;;;1.60;0.50;;;-7.80;99.90;;;;;;20738840;28;20037;-64
2021/01/09 00:44:16;;;;;;;2.83;0.60;;;-7.60;99.90;;;;;;20737667;28;20104;-64
2021/01/09 00:54:19;;;;;;;0.80;0.30;;;-7.90;99.90;;;;;;20799544;28;20041;-64
2021/01/09 01:04:21;;;;;;;1.03;0.40;;;-7.70;99.90;;;;;;20754005;28;20061;-64
2021/01/09 01:14:23;;;;;;;1.00;0.30;;;-7.40;99.90;;;;;;20738832;28;20034;-64
2021/01/09 01:24:25;;;;;;;0.90;0.40;;;-7.50;99.90;;;;;;20736845;28;20026;-65
2021/01/09 01:34:27;;;;;;;0.80;0.30;;;-7.90;99.90;;;;;;20747997;28;20108;-65
2021/01/09 01:44:32;;;;;;;0.63;0.30;;;-8.00;99.90;;;;;;20750339;28;20034;-64
2021/01/09 01:54:34;;;;;;;0.87;0.40;;;-7.70;99.90;;;;;;20797801;28;20318;-64
2021/01/09 02:04:36;;;;;;;1.20;0.50;;;-7.40;99.90;;;;;;20814398;28;20053;-65
2021/01/09 02:14:42;;;;;;;1.60;0.43;;;-7.20;99.90;;;;;;20831771;28;20318;-65
2021/01/09 02:24:46;;;;;;;0.80;0.30;;;-7.20;99.90;;;;;;20830696;28;20107;-64
2021/01/09 02:34:56;;;;;;;1.03;0.40;;;-7.30;99.90;;;;;;20828560;28;20394;-64
2021/01/09 02:44:59;;;;;;;0.67;0.20;;;-7.50;99.90;;;;;;20829996;28;20050;-64
2021/01/09 02:55:01;;;;;;;0.63;0.30;;;-7.40;99.90;;;;;;20828373;28;20037;-64
2021/01/09 03:05:03;;;;;;;0.53;0.20;;;-7.40;99.90;;;;;;20826387;28;20487;-65
2021/01/09 03:15:06;;;;;;;0.70;0.30;;;-7.30;99.90;;;;;;20825674;28;20064;-64
2021/01/09 03:25:08;;;;;;;1.17;0.23;;;-7.00;99.50;;;;;;20824352;28;20491;-64
2021/01/09 03:35:11;;;;;;;0.87;0.37;;;-7.00;99.60;;;;;;20825044;28;20087;-64
2021/01/09 03:45:13;;;;;;;3.47;0.53;;;-7.20;99.20;;;;;;20823712;28;20103;-63
2021/01/09 03:55:15;;;;;;;0.77;0.30;;;-7.40;99.30;;;;;;20823347;28;20037;-63
2021/01/09 04:05:16;;;;;;;0.53;0.30;;;-7.40;99.90;;;;;;20822874;28;20507;-66
2021/01/09 04:15:18;;;;;;;0.80;0.40;;;-7.10;99.20;;;;;;20822412;28;20349;-64
2021/01/09 04:25:20;;;;;;;0.60;0.20;;;-6.90;98.40;;;;;;20822535;28;20452;-64
2021/01/09 04:35:22;;;;;;;1.00;0.30;;;-7.00;98.30;;;;;;20819928;28;20068;-65
2021/01/09 04:45:24;;;;;;;0.90;0.30;;;-7.10;98.30;;;;;;20820452;28;20037;-63
2021/01/09 04:55:28;;;;;;;0.80;0.30;;;-7.00;98.40;;;;;;20819933;28;20037;-64
2021/01/09 05:05:30;;;;;;;0.80;0.30;;;-7.20;98.80;;;;;;20824790;28;20053;-65
2021/01/09 05:15:42;;;;;;;0.50;0.20;;;-7.30;98.70;;;;;;20834534;28;20060;-63
2021/01/09 05:25:45;;;;;;;0.93;0.30;;;-7.20;98.10;;;;;;20835217;28;20033;-63
2021/01/09 05:35:49;;;;;;;0.97;0.30;;;-7.20;98.80;;;;;;20832490;28;20053;-64
2021/01/09 05:45:51;;;;;;;0.63;0.20;;;-7.30;99.00;;;;;;20815876;28;20080;-63
2021/01/09 05:55:53;;;;;;;0.73;0.40;;;-7.40;98.90;;;;;;20832536;28;20393;-63
2021/01/09 06:05:58;;;;;;;0.40;0.20;;;-7.30;99.50;;;;;;20832965;28;20411;-63
2021/01/09 06:16:05;;;;;;;0.73;0.33;;;-7.30;99.30;;;;;;20813036;28;20038;-64
2021/01/09 06:26:10;;;;;;;0.80;0.33;;;-7.10;99.20;;;;;;20813438;28;20030;-64
2021/01/09 06:36:14;;;;;;;1.00;0.20;;;-7.00;99.20;;;;;;20827818;28;20025;-63
2021/01/09 06:46:45;;;;;;;0.47;0.30;;;-6.80;97.80;;;;;;20829291;28;20033;-64
2021/01/09 06:56:48;;;;;;;0.93;0.23;;;-7.00;98.80;;;;;;20814459;28;20041;-63
2021/01/09 07:06:58;;;;;;;0.70;0.20;;;-7.10;98.80;;;;;;20828104;28;20049;-64
2021/01/09 07:17:00;;;;;;;0.53;0.20;;;-7.30;99.40;;;;;;20825612;28;20075;-64
2021/01/09 07:27:03;;;;;;;0.67;0.20;;;-7.50;99.60;;;;;;20825153;28;20087;-63
2021/01/09 07:37:06;;;;;;;0.67;0.30;;;-7.30;99.50;;;;;;20824686;28;20037;-63
2021/01/09 07:47:10;;;;;;;0.70;0.20;;;-7.10;99.10;;;;;;20825295;28;20042;-66
2021/01/09 07:57:18;;;;;;;0.70;0.30;;;-6.70;97.90;;;;;;20823572;28;20030;-64
2021/01/09 08:07:21;;;;;;;0.70;0.20;;;-6.30;97.70;;;;;;20822885;28;20108;-64
2021/01/09 08:17:22;;;;;;;0.77;0.30;;;-6.30;97.90;;;;;;20804916;28;20076;-64
2021/01/09 08:27:24;;;;;;;1.13;0.30;;;-5.80;96.60;;;;;;20820630;28;20041;-64
2021/01/09 08:37:26;;;;;;;0.55;0.30;;;-5.20;96.50;;;;;;20818503;28;20029;-64
2021/01/09 08:47:29;;;;;;;0.52;0.22;;;-4.90;95.70;;;;;;20818745;28;20053;-63
2021/01/09 08:57:31;;;;;;;2.00;1.15;;;-4.20;93.30;;;;;;20820153;28;20033;-64
2021/01/09 09:07:35;;;;;;;3.20;0.80;;;-3.50;91.40;;;;;;20811253;28;20053;-63
2021/01/09 09:17:37;;;;;;;4.43;1.58;;;-3.70;99.90;;;;;;20814387;28;20060;-64
2021/01/09 09:27:39;;;;;;;4.93;1.90;;;-3.50;96.70;;;;;;20814845;28;20046;-65
2021/01/09 09:37:41;;;;;;;0.90;0.35;;;-3.00;93.40;;;;;;20773773;28;20042;-63
2021/01/09 09:47:50;;;;;;;3.65;1.00;;;-3.10;93.30;;;;;;20799595;28;20538;-63
2021/01/09 09:58:09;;;;;;;3.30;1.00;;;-2.90;90.50;;;;;;20822145;28;20488;-63
2021/01/09 10:08:12;;;;;;;1.45;0.50;;;-2.70;87.30;;;;;;20830630;28;20049;-64
2021/01/09 10:18:16;;;;;;;3.55;0.65;;;-2.60;82.90;;;;;;20828625;28;20107;-64
2021/01/09 10:28:18;;;;;;;1.23;0.40;;;-2.10;81.30;;;;;;20827569;28;20084;-63
2021/01/09 10:38:20;;;;;;;1.92;0.90;;;-1.60;78.50;;;;;;20818956;28;20411;-64
2021/01/09 10:48:21;;;;;;;0.57;0.40;;;-1.60;78.20;;;;;;20820980;28;20045;-64
2021/01/09 10:58:23;;;;;;;0.77;0.20;;;-0.70;75.20;;;;;;20818239;28;20072;-63
2021/01/09 11:08:26;;;;;;;0.40;0.30;;;0.60;72.50;;;;;;20818936;28;20053;-65
2021/01/09 11:18:28;;;;;;;1.08;0.40;;;-0.40;74.40;;;;;;20892465;28;20029;-63
2021/01/09 11:28:31;;;;;;;0.38;0.30;;;-0.40;74.90;;;;;;20830562;28;20160;-63
2021/01/09 11:38:32;;;;;;;0.88;0.20;;;-0.70;81.20;;;;;;20820580;28;20049;-63
2021/01/09 11:48:35;;;;;;;0.88;0.30;;;-0.50;77.20;;;;;;20845599;28;20412;-63
2021/01/09 11:58:37;;;;;;;2.08;0.30;;;-0.30;74.90;;;;;;20820798;28;20042;-62
2021/01/09 12:08:39;;;;;;;2.72;0.70;;;0.60;74.70;;;;;;20970579;23;20053;-62
2021/01/09 12:18:41;;;;;;;1.23;0.40;;;0.80;73.20;;;;;;20817094;28;20041;-62
2021/01/09 12:28:43;;;;;;;6.35;1.70;;;-0.30;76.50;;;;;;20815354;28;20483;-62
2021/01/09 12:38:45;;;;;;;1.33;0.60;;;-0.40;77.20;;;;;;20816215;28;20037;-62
2021/01/09 12:48:47;;;;;;;4.15;1.30;;;-0.20;81.60;;;;;;20819973;28;20491;-61
2021/01/09 12:58:49;;;;;;;2.80;1.00;;;-0.40;79.00;;;;;;20818938;28;20119;-62
2021/01/09 13:08:52;;;;;;;3.40;0.90;;;-0.10;81.60;;;;;;20820098;28;20379;-62
2021/01/09 13:18:54;;;;;;;0.77;0.40;;;0.50;77.30;;;;;;20819099;28;20096;-62
2021/01/09 13:28:57;;;;;;;0.63;0.38;;;0.60;83.80;;;;;;20827469;28;20099;-62
2021/01/09 13:38:59;;;;;;;1.83;0.38;;;0.90;83.00;;;;;;20834647;28;20250;-62
2021/01/09 13:49:08;;;;;;;13.68;6.65;;;0.80;81.20;;;;;;20816197;28;20025;-63
2021/01/09 13:59:16;;;;;;;31.67;14.95;;;0.50;85.10;;;;;;20832090;28;20565;-63
2021/01/09 14:09:18;;;;;;;1.67;0.65;;;0.20;84.70;;;;;;20832545;28;20514;-62
2021/01/09 14:19:20;;;;;;;1.52;0.60;;;0.20;83.50;;;;;;20832224;28;20049;-63
2021/01/09 14:29:22;;;;;;;1.00;0.40;;;-0.20;82.20;;;;;;20832176;28;20079;-62
2021/01/09 14:39:25;;;;;;;0.57;0.28;;;-0.90;85.30;;;;;;20828118;28;20061;-64
2021/01/09 14:49:28;;;;;;;1.15;0.40;;;-1.70;88.80;;;;;;20828730;28;20033;-62
2021/01/09 14:59:30;;;;;;;2.38;0.88;;;-2.60;90.70;;;;;;20828048;28;20049;-61
2021/01/09 15:09:32;;;;;;;1.10;0.47;;;-3.60;92.50;;;;;;20828031;28;20045;-61
2021/01/09 15:19:34;;;;;;;0.80;0.38;;;-4.40;94.10;;;;;;20827072;28;20487;-63
2021/01/09 15:29:37;;;;;;;1.13;0.50;;;-4.80;99.00;;;;;;20826090;28;20034;-62
2021/01/09 15:39:39;;;;;;;1.88;0.38;;;-4.70;99.80;;;;;;20825003;28;20491;-62
2021/01/09 15:49:41;;;;;;;0.82;0.45;;;-5.00;99.90;;;;;;20823052;28;20467;-63
2021/01/09 15:59:43;;;;;;;1.30;0.80;;;-5.30;99.90;;;;;;20822110;28;20475;-62
2021/01/09 16:09:45;;;;;;;0.85;0.40;;;-5.40;99.90;;;;;;20823210;28;20111;-62
2021/01/09 16:19:47;;;;;;;0.75;0.30;;;-5.40;99.90;;;;;;20822618;28;20064;-62
2021/01/09 16:29:49;;;;;;;1.02;0.47;;;-5.40;99.90;;;;;;20821697;28;20468;-62
2021/01/09 16:39:51;;;;;;;0.90;0.30;;;-5.40;99.90;;;;;;20820922;28;20537;-62
2021/01/09 16:49:53;;;;;;;0.45;0.20;;;-5.60;99.90;;;;;;20821399;28;20037;-62
2021/01/09 16:59:55;;;;;;;0.60;0.20;;;-5.90;99.90;;;;;;20822455;28;20332;-62
2021/01/09 17:09:58;;;;;;;0.45;0.20;;;-6.00;99.90;;;;;;20836652;28;20475;-63
2021/01/09 17:20:01;;;;;;;1.00;0.30;;;-6.10;99.90;;;;;;20836195;28;20471;-63
2021/01/09 17:30:04;;;;;;;1.17;0.40;;;-6.10;99.90;;;;;;20833871;28;20095;-63
2021/01/09 17:40:06;;;;;;;2.05;0.80;;;-6.20;99.90;;;;;;20835488;28;20049;-63
2021/01/09 17:50:09;;;;;;;1.40;0.40;;;-6.20;99.90;;;;;;20833972;28;20042;-62
2021/01/09 18:00:12;;;;;;;0.40;0.20;;;-6.20;99.90;;;;;;20831636;28;20135;-62
2021/01/09 18:10:18;;;;;;;0.30;0.10;;;-6.20;99.90;;;;;;20831829;28;20246;-64
2021/01/09 18:20:20;;;;;;;0.38;0.28;;;-6.20;99.90;;;;;;20829578;28;20053;-63
2021/01/09 18:30:23;;;;;;;0.35;0.15;;;-6.00;99.90;;;;;;20812909;28;20037;-62
2021/01/09 18:40:31;;;;;;;1.23;0.30;;;-6.10;99.90;;;;;;20829127;28;20545;-62
2021/01/09 18:50:37;;;;;;;1.05;0.32;;;-5.70;99.90;;;;;;20828529;28;20099;-62
2021/01/09 19:00:41;;;;;;;0.60;0.20;;;-5.40;99.90;;;;;;20827297;28;20053;-62
2021/01/09 19:10:44;;;;;;;0.75;0.22;;;-5.30;99.90;;;;;;20827737;28;20480;-63
2021/01/09 19:20:49;;;;;;;0.75;0.30;;;-5.50;99.90;;;;;;20825693;28;20569;-62
2021/01/09 19:30:56;;;;;;;0.25;0.15;;;-5.80;99.90;;;;;;20825415;28;20549;-62
2021/01/09 19:41:00;;;;;;;0.47;0.28;;;-5.20;99.90;;;;;;20823784;28;20518;-62
2021/01/09 19:51:10;;;;;;;0.43;0.20;;;-5.00;99.90;;;;;;20823370;28;20037;-62
2021/01/09 20:01:20;;;;;;;0.47;0.20;;;-5.30;99.90;;;;;;20823618;28;20041;-62
2021/01/09 20:11:23;;;;;;;0.50;0.20;;;-5.30;99.90;;;;;;20821503;28;20049;-62
2021/01/09 20:21:31;;;;;;;0.30;0.10;;;-5.30;99.90;;;;;;20822368;28;20091;-62
2021/01/09 20:31:36;;;;;;;0.95;0.38;;;-5.10;99.90;;;;;;20803965;28;20041;-63
2021/01/09 20:41:46;;;;;;;2.35;0.32;;;-5.00;99.90;;;;;;20819745;28;20455;-63
2021/01/09 20:51:52;;;;;;;0.57;0.25;;;-5.10;99.90;;;;;;20819347;28;20041;-62
2021/01/09 21:01:55;;;;;;;0.90;0.35;;;-5.10;99.90;;;;;;20802646;28;20041;-62
2021/01/09 21:12:02;;;;;;;0.57;0.38;;;-4.70;99.90;;;;;;20786778;28;20103;-62
2021/01/09 21:22:06;;;;;;;0.55;0.30;;;-4.20;99.40;;;;;;20834056;28;20115;-63
2021/01/09 21:32:12;;;;;;;0.57;0.30;;;-4.00;98.40;;;;;;20817866;28;20060;-63
2021/01/09 21:42:15;;;;;;;0.90;0.35;;;-4.30;99.90;;;;;;20833684;28;20045;-63
2021/01/09 21:52:18;;;;;;;1.13;0.45;;;-4.70;99.90;;;;;;20829745;28;20045;-63
2021/01/09 22:02:20;;;;;;;0.90;0.40;;;-4.80;99.90;;;;;;20833460;28;20045;-63
2021/01/09 22:12:23;;;;;;;1.13;0.50;;;-5.00;99.90;;;;;;20830560;28;20079;-62
2021/01/09 22:22:26;;;;;;;0.93;0.40;;;-4.90;99.90;;;;;;20830871;28;20045;-63
2021/01/09 22:32:28;;;;;;;0.50;0.22;;;-4.90;99.90;;;;;;20829523;28;20365;-63
2021/01/09 22:42:31;;;;;;;0.85;0.30;;;-4.80;99.90;;;;;;20829444;28;20103;-63
2021/01/09 22:52:33;;;;;;;0.60;0.30;;;-4.60;99.90;;;;;;20830005;28;20037;-62
2021/01/09 23:02:35;;;;;;;0.65;0.30;;;-4.60;99.90;;;;;;20828018;28;20446;-63
2021/01/09 23:12:36;;;;;;;0.45;0.28;;;-4.80;99.90;;;;;;20826518;28;20106;-62
2021/01/09 23:22:39;;;;;;;0.50;0.30;;;-4.70;99.90;;;;;;20826736;28;20041;-62
2021/01/09 23:32:42;;;;;;;0.77;0.30;;;-4.60;99.90;;;;;;20824757;28;20033;-64
2021/01/09 23:42:45;;;;;;;0.80;0.40;;;-4.40;98.20;;;;;;20824270;28;20054;-63
2021/01/09 23:52:47;;;;;;;0.80;0.40;;;-4.20;99.30;;;;;;20824064;28;20060;-62
